Date,TemperatureHighF,TemperatureAvgF,TemperatureLowF,DewpointHighF,DewpointAvgF,DewpointLowF,HumidityHigh,HumidityAvg,HumidityLow,PressureMaxIn,PressureMinIn,WindSpeedMaxMPH,WindSpeedAvgMPH,GustSpeedMaxMPH,PrecipitationSumIn
2013-1-1,39.6,35.6,24.8,28.5,21.3,6.5,68,56,42,29.89,29.70,16,3,21,0.00
2013-1-2,33.3,26.9,19.8,14.7,9.7,5.0,58,48,36,30.03,29.86,13,2,21,0.00
2013-1-3,35.2,27.7,16.5,16.6,11.5,4.8,60,51,32,30.06,29.92,8,2,11,0.00
2013-1-4,40.8,34.2,29.3,22.3,19.4,16.7,65,55,44,29.93,29.67,12,3,18,0.00
2013-1-5,45.3,35.8,27.9,22.9,19.9,15.4,76,53,37,30.15,29.86,11,3,17,0.00
2013-1-6,49.6,37.8,29.5,31.3,26.1,22.6,82,64,42,30.09,29.82,11,2,14,0.00
2013-1-7,47.5,36.1,26.4,30.7,22.7,16.2,82,60,31,30.27,29.91,8,1,14,0.00
2013-1-8,50.9,35.5,23.4,30.9,24.8,17.9,84,66,45,30.29,30.20,11,2,14,0.00
2013-1-9,46.4,36.5,26.1,36.5,28.9,21.0,86,74,59,30.25,29.99,9,2,14,0.00
2013-1-10,45.3,44.5,43.3,31.8,28.5,25.3,59,53,48,30.19,30.08,8,3,17,0.00
2013-1-11,41.4,37.6,29.8,40.0,32.6,23.3,95,83,65,30.41,29.98,4,1,6,0.39
2013-1-12,46.9,44.6,41.2,44.2,43.0,39.9,97,94,89,30.04,29.94,5,1,8,0.02
2013-1-13,47.5,45.4,43.7,46.8,44.6,42.9,98,97,97,30.03,29.88,6,1,8,0.00
2013-1-14,57.6,48.8,37.9,53.6,41.6,29.0,98,79,45,30.17,29.77,9,2,17,0.07
2013-1-15,39.0,36.6,34.3,33.2,25.7,21.5,84,65,53,30.23,30.09,10,2,14,0.11
2013-1-16,34.5,32.7,30.9,31.0,28.8,24.0,89,86,65,30.11,29.66,8,2,11,0.00
2013-1-17,45.0,37.9,32.9,31.3,26.3,18.5,89,64,46,29.97,29.76,13,2,16,0.30
2013-1-18,32.9,27.3,23.4,25.9,4.6,-7.1,97,39,21,30.34,29.89,13,3,17,0.00
2013-1-19,50.0,39.6,26.2,27.7,19.9,3.8,59,45,34,30.25,29.78,17,5,23,0.00
2013-1-20,54.7,42.0,28.9,29.2,19.3,2.3,68,43,19,29.91,29.55,20,5,26,0.00
2013-1-21,30.4,27.4,22.1,14.5,7.8,-2.2,60,44,27,29.96,29.69,13,2,15,0.00
2013-1-22,25.7,19.3,12.0,12.8,-7.2,-18.2,58,31,19,30.07,29.69,14,4,24,0.00
2013-1-23,20.5,13.5,8.6,-4.0,-12.9,-18.5,52,30,20,30.11,30.01,11,2,24,0.00
2013-1-24,24.6,15.5,8.1,-0.8,-8.0,-18.4,59,36,19,30.25,29.99,16,4,28,0.01
2013-1-25,23.4,17.2,12.0,12.8,-1.4,-10.3,75,45,25,30.26,29.93,11,2,17,0.00
2013-1-26,30.9,19.3,9.3,6.3,1.1,-6.3,74,48,22,30.23,29.90,11,2,17,0.00
2013-1-27,36.5,25.3,13.8,8.4,2.7,-1.0,63,39,21,30.39,30.22,9,2,73,0.00
2013-1-28,33.8,29.0,22.3,30.7,21.5,8.5,89,74,52,30.35,29.87,10,2,13,0.17
2013-1-29,53.2,39.8,33.6,42.3,35.1,30.5,93,84,63,30.03,29.85,7,1,10,0.25
2013-1-30,58.8,46.6,37.9,56.2,44.6,35.6,95,93,85,29.96,29.22,13,1,20,0.15
2013-1-31,61.3,45.7,29.3,58.1,26.5,1.6,92,51,22,29.64,28.90,30,8,58,2.44
2013-2-1,33.8,27.7,23.0,9.0,3.3,-4.1,49,35,22,30.09,29.64,12,4,24,0.00
2013-2-2,30.9,25.8,17.6,7.8,-0.1,-6.6,53,33,21,30.16,30.01,13,4,24,0.00
2013-2-3,34.0,28.8,23.2,16.9,7.4,-2.0,73,42,24,30.01,29.66,6,3,14,0.02
2013-2-4,32.4,26.8,21.9,15.8,3.3,-4.3,66,37,24,29.84,29.67,12,3,19,0.01
2013-2-5,30.0,27.7,25.0,23.4,17.7,7.2,79,66,43,29.85,29.76,8,2,10,0.00
2013-2-6,41.5,32.7,25.5,25.7,14.6,-7.9,84,52,20,30.22,29.78,11,3,19,0.01
2013-2-7,31.6,26.6,20.8,17.5,2.0,-8.0,60,35,21,30.38,30.20,8,2,11,0.00
2013-2-8,33.1,31.1,26.1,28.8,25.2,17.5,89,79,60,30.20,29.52,15,3,23,0.00
2013-2-9,35.1,27.4,19.6,23.0,9.9,-10.4,84,53,18,30.21,29.62,16,3,23,0.00
2013-2-10,38.5,25.4,11.5,15.9,4.3,-3.3,63,42,21,30.35,30.19,6,1,8,0.11
2013-2-11,40.6,34.4,26.6,38.0,29.2,15.4,92,81,62,30.19,29.53,5,0,7,0.22
2013-2-12,48.9,40.0,30.9,35.4,24.8,18.8,91,56,35,29.83,29.58,12,3,18,0.01
2013-2-13,31.3,30.1,29.1,21.3,20.7,19.9,70,68,65,29.82,29.78,2,0,3,0.00
2013-2-14,47.5,37.7,29.3,29.9,25.3,19.0,85,63,34,29.86,29.59,5,1,8,0.08
2013-2-15,55.8,41.6,28.6,32.1,27.1,23.2,80,59,32,29.87,29.77,8,2,12,0.00
2013-2-16,39.6,34.7,30.4,31.0,21.4,8.3,82,59,39,29.84,29.62,8,3,11,0.06
2013-2-17,32.2,23.3,16.5,6.7,-7.1,-12.9,38,25,20,29.86,29.52,19,7,34,0.15
2013-2-18,37.0,26.0,16.2,10.5,-3.1,-11.5,44,28,20,30.09,29.85,15,4,22,0.00
2013-2-19,46.4,33.4,23.0,38.2,18.8,7.6,86,56,40,30.06,29.61,13,2,18,0.11
2013-2-25,46.6,38.4,28.6,26.5,22.7,17.6,68,54,40,30.10,29.84,7,2,9,0.00
2013-2-26,43.0,37.4,29.3,30.5,26.9,21.9,81,66,57,30.16,29.79,10,3,14,0.17
2013-2-27,45.7,41.9,36.0,42.7,37.7,30.7,90,85,75,29.78,29.36,14,5,25,1.10
2013-2-28,51.4,42.4,37.4,38.5,32.5,27.5,90,69,49,29.49,29.41,3,1,6,0.00
2013-3-1,46.0,39.3,34.2,29.4,25.4,18.8,69,58,42,29.64,29.47,7,3,9,0.00
2013-3-2,40.5,35.9,30.7,22.8,20.5,18.9,67,54,46,29.64,29.56,8,4,12,0.00
2013-3-3,42.6,31.5,28.0,18.6,13.4,8.8,60,47,29,29.63,29.52,10,4,17,0.00
2013-3-4,41.7,33.3,26.6,18.5,14.1,8.0,56,45,33,29.77,29.62,17,6,24,0.00
2013-3-5,50.4,39.4,30.7,24.1,20.3,15.5,57,47,33,29.89,29.76,12,4,17,0.00
2013-3-6,43.7,39.8,37.2,34.2,27.8,23.8,78,62,54,29.85,29.74,24,8,35,0.40
2013-3-7,39.6,35.9,32.5,29.6,26.2,21.2,83,68,52,29.95,29.78,19,5,26,0.11
2013-3-8,42.3,36.0,30.9,30.9,27.9,24.0,85,74,53,30.07,29.87,14,2,20,0.27
2013-3-9,57.2,44.0,33.4,24.2,18.0,8.0,58,38,18,30.19,30.05,15,4,21,0.02
2013-3-10,33.3,31.6,31.5,21.6,21.4,20.3,66,66,59,30.21,30.18,2,0,3,0.00
2013-3-11,50.7,31.7,31.5,45.8,21.7,21.4,83,66,66,30.21,29.91,10,0,17,0.00
2013-3-12,52.5,50.3,49.8,45.9,45.6,44.3,86,84,74,29.92,29.77,11,1,15,0.07
2013-3-13,50.0,50.0,50.0,45.7,45.7,45.7,85,85,85,29.77,29.77,0,0,3,0.07
2013-3-19,50.9,39.2,34.5,45.9,31.0,21.4,86,73,56,30.26,29.86,11,2,15,0.14
2013-3-20,45.9,37.4,29.8,21.4,14.6,7.1,57,41,22,30.03,29.95,14,3,21,0.00
2013-3-21,41.9,35.0,30.6,23.2,9.9,-0.4,69,37,21,30.01,29.80,10,3,14,0.00
2013-3-22,42.8,34.5,27.5,17.7,12.5,7.3,54,40,29,30.04,29.89,13,3,19,0.00
2013-3-23,47.5,38.9,30.7,19.6,14.5,9.1,54,37,23,30.11,29.99,13,4,23,0.00
2013-3-24,48.7,39.4,27.9,21.4,16.9,13.3,59,41,27,30.11,29.88,11,3,14,0.00
2013-3-25,43.9,39.5,36.9,33.4,25.0,19.8,80,56,38,29.88,29.63,15,4,23,0.01
2013-3-26,52.9,42.4,34.9,28.1,24.2,17.0,66,50,25,30.03,29.75,11,2,17,0.00
2013-3-27,55.0,43.9,35.2,28.9,21.3,13.9,60,42,21,30.15,30.02,12,4,21,0.00
2013-3-28,51.8,44.3,37.4,31.4,27.4,24.3,65,52,39,30.28,30.12,11,4,17,0.00
2013-3-29,56.7,46.9,39.6,28.6,24.6,17.9,59,43,24,30.31,30.22,11,3,14,0.00
2013-3-30,61.2,47.1,32.7,29.2,22.6,14.3,73,43,17,30.34,30.23,9,2,14,0.00
2013-3-31,55.6,44.1,31.1,42.8,31.3,21.7,92,63,27,30.30,29.85,20,3,27,0.24
2013-4-1,63.9,47.6,36.5,46.7,33.8,3.3,95,64,23,30.08,29.78,15,4,23,0.01
2013-4-2,41.7,34.3,29.5,13.8,8.6,1.2,49,35,22,30.19,30.08,14,4,22,0.00
2013-4-3,48.4,38.6,31.6,10.6,6.2,-0.4,41,26,19,30.47,30.24,10,5,13,0.00
2013-4-4,54.9,41.8,28.0,28.7,16.0,8.2,56,36,21,30.55,30.25,10,4,14,0.00
2013-4-5,64.6,53.4,40.1,28.6,18.6,12.2,57,27,16,30.24,29.89,13,5,24,0.02
2013-4-6,55.8,43.5,34.3,27.9,14.1,5.1,65,32,17,30.48,30.17,10,3,18,0.00
2013-4-7,57.6,47.6,38.1,43.9,34.3,23.8,76,61,35,30.48,30.16,17,4,25,0.00
2013-4-8,76.8,58.8,42.1,45.8,41.2,30.7,93,58,21,30.25,30.14,12,2,17,0.00
2013-4-9,84.2,67.4,50.5,52.5,42.0,25.4,89,48,13,30.18,30.08,12,2,21,0.00
2013-4-10,73.6,62.6,52.7,58.0,50.8,42.4,99,67,47,30.15,29.99,11,2,19,0.39
2013-4-11,63.5,56.1,47.1,58.4,46.5,38.5,99,72,50,30.24,29.97,10,4,14,0.02
2013-4-12,47.1,43.2,40.5,42.4,38.9,33.3,99,86,65,30.22,29.90,20,6,34,0.73
2013-4-13,60.3,49.2,38.8,42.1,36.7,30.8,98,68,34,30.13,29.93,10,2,17,0.04
2013-4-23,52.3,45.2,39.4,41.0,36.8,31.1,88,72,64,30.67,30.29,7,3,10,0.00
2013-4-24,70.5,53.9,37.9,51.2,44.6,36.9,97,74,45,30.28,30.00,8,2,13,0.00
2013-4-25,68.0,57.0,46.4,52.8,28.9,15.3,82,39,13,30.44,30.03,9,3,13,0.00
2013-4-26,68.9,55.1,38.7,40.4,29.8,16.0,91,46,13,30.58,30.44,6,2,9,0.00
2013-4-27,70.3,57.7,41.7,35.6,26.7,18.9,71,34,15,30.60,30.45,6,2,9,0.00
2013-4-28,70.0,56.9,42.8,41.0,34.6,26.1,82,47,22,30.49,30.38,10,2,16,0.00
2013-4-29,56.7,55.3,52.7,50.7,47.0,36.2,91,74,50,30.42,30.37,8,1,11,0.02
2013-4-30,68.4,58.3,48.0,47.4,36.7,19.8,82,50,18,30.52,30.38,10,2,13,0.00
2013-5-1,69.4,56.1,39.4,45.1,36.6,21.5,88,53,18,30.67,30.46,11,2,15,0.00
2013-5-2,76.1,59.5,41.9,47.3,40.7,24.6,99,57,20,30.66,30.49,11,1,14,0.00
2013-5-3,67.3,57.5,48.2,44.5,38.9,31.6,84,52,27,30.64,30.53,11,3,18,0.00
2013-5-4,72.9,56.0,43.3,46.8,43.3,40.1,97,66,32,30.56,30.41,11,2,19,0.00
2013-5-5,64.8,52.4,41.4,45.3,40.5,34.1,97,68,34,30.49,30.39,9,2,12,0.00
2013-5-6,72.0,56.4,42.8,55.0,47.8,41.1,97,75,48,30.45,30.32,10,2,13,0.00
2013-5-7,76.3,62.3,47.7,58.6,53.6,47.4,99,75,52,30.35,30.26,11,1,15,0.00
2013-5-8,64.9,60.7,54.1,62.8,59.0,53.3,99,94,85,30.29,30.15,12,2,17,1.41
2013-5-9,73.0,60.0,52.3,62.1,56.5,51.8,99,89,55,30.19,30.06,5,1,8,0.67
2013-5-10,82.8,66.8,51.1,60.1,55.0,50.8,99,71,36,30.18,30.07,11,1,14,0.00
2013-5-11,70.7,64.6,60.6,65.0,62.3,57.9,99,92,80,30.09,29.87,12,2,14,0.38
2013-5-12,71.4,61.7,50.4,60.4,41.6,21.4,99,56,18,30.11,29.83,9,2,16,0.02
2013-5-13,59.4,50.5,39.2,35.4,28.0,20.0,79,44,23,30.25,30.10,8,2,16,0.00
2013-5-14,63.1,50.9,36.0,37.3,28.6,17.1,89,49,17,30.29,30.19,7,2,11,0.00
2013-5-15,69.1,56.3,39.9,56.5,46.8,37.1,92,72,45,30.24,29.84,11,2,14,0.00
2013-5-16,82.4,68.4,52.7,57.7,51.3,39.5,98,61,23,30.00,29.89,8,1,11,0.00
2013-5-17,76.5,65.5,55.9,47.7,41.4,35.7,71,43,25,30.38,30.01,8,2,11,0.00
2013-5-18,68.0,58.6,48.0,58.6,50.8,45.8,97,78,45,30.48,30.38,4,1,8,0.06
2013-5-19,59.2,57.4,55.8,58.4,56.8,54.2,99,98,87,30.50,30.36,4,1,6,0.26
2013-5-20,82.8,71.8,57.6,67.0,63.8,57.3,99,78,55,30.35,30.13,8,1,11,0.01
2013-5-21,90.1,76.4,61.7,69.7,66.4,61.1,99,74,47,30.16,30.00,11,2,17,0.00
2013-5-22,75.9,73.6,70.9,68.1,67.5,66.7,89,81,74,30.05,30.02,3,1,8,0.00
2013-5-23,78.6,69.1,65.7,72.0,67.3,65.4,99,94,71,30.06,29.93,5,1,8,1.69
2013-5-24,66.0,55.8,45.1,65.8,53.5,41.8,99,92,78,30.13,29.85,8,2,17,0.41
2013-5-25,53.2,45.6,44.4,46.7,43.6,42.7,96,93,76,30.12,30.07,8,2,14,0.40
2013-5-26,68.7,56.9,46.8,41.2,37.2,32.1,73,51,27,30.38,30.11,10,3,14,0.00
2013-5-27,78.4,62.2,42.4,45.5,37.6,27.9,88,48,17,30.41,30.28,4,1,7,0.00
2013-5-28,69.1,57.8,50.2,57.8,52.2,44.6,99,83,46,30.40,30.31,2,1,4,0.47
2013-5-29,86.0,70.0,58.1,68.0,63.0,57.8,99,81,52,30.32,30.17,6,1,11,0.01
2013-5-30,95.0,81.9,66.6,69.1,65.3,61.5,95,61,35,30.30,30.22,4,1,7,0.00
2013-5-31,94.3,81.3,66.7,69.8,65.5,58.3,95,62,35,30.31,30.16,7,1,10,0.00
2013-6-1,94.1,86.0,66.6,69.9,66.9,62.1,93,54,42,30.19,30.07,11,2,15,0.00
2013-6-2,89.8,80.5,72.5,72.2,68.4,64.7,96,68,47,30.09,29.94,11,3,17,0.08
2013-6-3,82.8,73.1,66.7,72.2,64.8,48.8,97,77,48,30.08,29.98,11,1,17,0.15
2013-6-4,79.2,67.3,56.5,49.4,43.2,36.8,61,43,23,30.30,30.07,8,2,11,0.00
2013-6-5,77.9,64.7,50.5,49.9,45.6,41.8,82,52,33,30.40,30.29,11,2,15,0.00
2013-6-6,72.3,62.9,53.2,60.3,54.6,46.6,96,77,42,30.33,30.21,11,1,14,0.18
2013-6-7,61.9,60.5,59.0,61.3,60.0,58.4,99,98,96,30.20,29.83,10,3,14,2.48
2013-6-8,81.1,68.4,57.2,64.0,60.3,56.1,99,78,51,30.23,29.78,9,2,18,0.14
2013-6-9,85.8,72.1,58.1,64.1,59.3,55.1,98,68,39,30.35,30.23,6,1,10,0.00
2013-6-10,71.4,65.2,61.7,66.7,62.9,60.4,98,92,83,30.35,30.01,8,2,14,0.91
2013-6-11,82.8,71.4,62.1,70.9,64.0,56.2,99,79,54,30.01,29.79,8,2,13,0.13
2013-6-12,79.3,70.7,61.0,58.6,54.4,51.5,84,58,41,30.03,29.89,10,2,17,0.00
2013-6-13,63.1,60.4,56.3,61.4,58.3,53.8,97,93,85,30.03,29.67,11,2,20,0.54
2013-6-14,77.4,62.5,53.1,57.3,53.5,49.4,97,75,46,30.06,29.72,10,2,18,0.41
2013-6-15,84.2,71.7,59.0,57.7,53.6,44.5,90,57,28,30.19,30.06,8,1,11,0.00
2013-6-16,83.3,70.4,56.3,64.7,57.8,50.5,95,67,38,30.17,29.93,14,1,23,0.00
2013-6-17,89.8,76.4,63.5,67.8,63.4,59.1,98,68,40,30.09,30.00,10,1,15,0.00
2013-6-18,85.5,70.5,63.0,68.3,63.9,55.7,97,82,50,30.09,30.00,8,1,15,0.37
2013-6-19,80.4,67.7,57.6,61.2,52.4,40.5,95,63,27,30.35,30.07,12,2,15,0.01
2013-6-20,82.9,69.6,54.9,59.3,55.2,48.5,97,64,32,30.45,30.35,9,2,13,0.00
2013-6-21,67.8,59.7,57.9,55.6,53.8,52.0,84,81,65,30.47,30.44,2,0,4,0.00
2013-6-22,59.0,59.0,59.0,53.9,53.9,53.9,83,83,83,30.47,30.47,0,0,0,0.00
2013-6-23,59.0,59.0,59.0,53.9,53.9,53.9,83,83,83,30.47,30.47,0,0,0,0.00
2013-6-24,59.0,59.0,59.0,53.9,53.9,53.9,83,83,83,30.47,30.47,0,0,0,0.00
2013-6-25,59.0,59.0,59.0,53.9,53.9,53.9,83,83,83,30.47,30.47,0,0,0,0.00
2013-6-26,59.0,59.0,59.0,53.9,53.9,53.9,83,83,83,30.47,30.47,0,0,0,0.00
2013-6-27,59.0,59.0,59.0,53.9,53.9,53.9,83,83,83,30.47,30.47,0,0,0,0.00
2013-6-28,88.7,74.9,59.0,73.6,63.3,53.2,90,69,47,30.47,29.85,10,2,15,0.02
2013-6-29,88.2,77.4,68.9,69.9,67.0,62.4,93,72,43,30.09,29.87,11,2,14,0.00
2013-6-30,86.7,76.3,68.9,74.8,71.7,68.0,97,86,64,30.30,30.09,11,1,14,0.00
2013-7-1,77.5,74.8,72.1,75.5,73.0,70.2,97,94,87,30.44,30.28,9,1,11,1.04
2013-7-2,84.7,78.3,73.6,77.1,73.0,70.5,97,84,69,30.56,30.43,11,2,15,0.04
2013-7-3,86.0,78.6,73.4,76.6,72.5,70.0,94,82,65,30.64,30.55,9,2,16,0.02
2013-7-4,93.2,83.0,74.5,75.9,72.8,69.6,98,73,49,30.64,30.53,9,2,14,0.01
2013-7-5,95.2,84.8,74.7,74.7,71.3,66.9,93,66,44,30.60,30.47,9,2,13,0.00
2013-7-6,95.4,85.7,77.2,74.8,72.5,69.6,87,66,45,30.53,30.41,7,1,11,0.00
2013-7-7,97.9,85.4,74.3,75.7,72.9,68.9,95,69,42,30.45,30.28,8,1,14,0.05
2013-7-8,92.8,81.3,70.3,72.5,68.5,64.4,95,68,43,30.43,30.34,7,1,8,0.00
2013-7-9,92.7,83.4,70.9,71.3,68.8,65.3,91,64,45,30.47,29.43,7,1,11,1.18
2013-7-10,88.2,81.9,75.9,77.9,72.1,69.2,89,73,56,29.92,29.69,12,2,16,0.07
2013-7-11,88.7,80.5,72.5,75.0,70.0,63.8,88,71,48,29.83,29.70,5,1,8,0.01
2013-7-12,80.1,74.1,67.8,71.1,65.9,61.7,95,76,63,30.01,29.82,13,3,16,0.11
2013-7-13,82.4,73.3,66.9,75.2,70.7,65.5,98,92,77,30.18,30.01,9,2,13,0.06
2013-7-14,95.0,83.2,73.2,76.8,72.6,69.3,99,73,46,30.24,30.12,5,1,8,0.01
2013-7-15,98.6,86.4,77.5,76.1,72.8,68.8,87,66,42,30.15,30.03,8,1,11,0.00
2013-7-16,96.1,85.3,72.5,74.5,68.9,64.2,91,61,37,30.11,30.02,9,2,14,0.00
2013-7-17,100.0,86.3,73.6,73.5,70.6,64.2,91,62,33,30.10,29.95,7,1,8,0.00
2013-7-18,100.6,88.6,76.6,76.3,72.7,69.1,88,62,38,29.97,29.84,5,1,8,0.00
2013-7-19,99.0,89.3,78.4,76.4,74.1,71.0,88,63,42,29.86,29.67,11,2,17,0.00
2013-7-20,95.2,85.9,79.5,76.6,71.3,66.5,77,63,44,29.74,29.61,11,2,15,0.00
2013-7-21,89.6,81.1,75.2,72.2,65.2,60.8,82,60,41,29.86,29.73,9,1,13,0.00
2013-7-22,86.0,76.5,71.6,76.4,71.5,63.9,99,85,64,29.86,29.70,8,1,14,0.59
2013-7-23,90.1,79.4,73.4,75.0,73.3,68.7,99,83,52,29.70,29.44,8,1,11,0.52
2013-7-24,84.6,76.4,68.0,73.4,64.7,51.7,97,69,46,29.84,29.51,10,2,19,0.00
2013-7-25,68.5,65.6,62.1,59.7,54.5,47.8,77,67,57,29.97,29.84,12,3,19,0.00
2013-7-26,87.1,73.9,66.2,63.6,60.5,58.6,81,64,43,29.94,29.88,9,2,13,0.00
2013-7-27,84.9,73.9,62.6,66.3,62.5,60.0,97,70,46,29.95,29.85,9,1,14,0.00
2013-7-28,79.9,72.1,65.5,70.9,67.0,63.4,98,85,62,29.89,29.82,10,1,15,0.19
2013-7-29,87.8,76.5,68.4,71.7,64.3,51.1,99,70,34,30.00,29.85,7,1,11,0.01
2013-7-30,82.9,72.1,59.4,61.0,57.5,54.6,90,62,41,30.07,30.00,8,1,10,0.00
2013-7-31,85.5,72.5,59.7,63.3,60.5,57.8,96,68,43,30.06,29.93,5,1,8,0.00
2013-8-1,75.6,69.0,66.7,68.3,66.0,62.3,99,91,65,29.94,29.73,10,1,16,0.56
2013-8-2,86.7,75.1,63.9,69.5,63.9,59.1,99,72,40,29.81,29.69,8,1,13,0.00
2013-8-3,81.3,70.7,65.5,69.4,64.3,59.0,95,81,56,29.81,29.73,8,1,12,0.08
2013-8-4,82.6,72.0,61.0,64.5,56.9,51.0,95,62,38,29.87,29.75,8,1,13,0.00
2013-8-5,81.7,69.5,58.3,56.3,50.1,41.1,81,53,28,29.96,29.86,11,1,16,0.00
2013-8-6,82.4,70.0,55.9,61.2,56.0,50.8,95,64,35,30.02,29.93,11,1,15,0.00
2013-8-7,79.0,71.9,64.9,68.5,64.1,58.8,90,77,61,30.04,29.96,13,2,18,0.01
2013-8-8,83.1,74.3,69.8,75.6,71.1,68.0,97,90,71,29.97,29.90,13,1,17,0.32
2013-8-9,88.3,76.9,72.1,76.2,73.7,71.0,99,91,62,29.92,29.68,9,2,12,0.37
2013-8-10,86.5,75.4,65.3,72.2,63.6,55.9,99,70,41,29.95,29.75,8,1,12,0.01
2013-8-11,82.6,71.3,58.1,64.8,58.0,52.8,91,66,41,30.03,29.92,5,1,9,0.00
2013-8-12,87.1,74.0,67.3,69.0,64.4,56.0,98,75,38,29.93,29.82,4,0,8,0.39
2013-8-13,79.0,71.7,67.5,70.6,67.7,65.2,98,88,65,29.83,29.59,7,1,13,0.84
2013-8-14,76.3,68.6,57.2,66.3,52.7,48.2,99,58,44,29.95,29.65,10,2,16,0.00
2013-8-15,80.8,66.5,52.3,56.4,51.7,43.1,96,64,30,30.04,29.94,5,1,11,0.00
2013-8-16,84.6,69.0,55.6,60.6,54.9,45.9,98,66,30,30.11,30.02,6,0,7,0.00
2013-8-17,84.9,70.7,56.8,61.1,57.6,52.8,97,67,35,30.18,30.10,7,1,10,0.00
2013-8-18,77.5,69.4,62.6,66.6,61.3,58.4,93,76,55,30.16,30.02,5,0,8,0.00
2013-8-19,82.8,71.2,61.0,66.2,62.3,59.7,97,76,49,30.03,29.93,4,1,7,0.00
2013-8-20,90.7,76.0,61.5,69.4,64.1,58.9,98,71,36,30.03,29.94,7,1,9,0.00
2013-8-21,92.1,77.4,64.4,67.6,63.9,58.5,97,67,35,30.08,29.95,6,1,8,0.00
2013-8-22,76.5,72.0,68.2,72.5,69.5,65.2,97,92,85,29.97,29.77,6,1,7,0.31
2013-8-23,83.8,74.4,68.4,69.8,60.8,51.6,98,66,37,30.01,29.77,9,2,14,0.00
2013-8-24,82.2,70.1,59.5,58.5,52.9,49.0,87,56,33,30.25,30.01,8,2,12,0.00
2013-8-25,85.8,70.4,55.2,61.3,55.4,47.9,98,65,28,30.30,30.12,7,1,9,0.00
2013-8-26,79.7,72.8,67.5,70.1,62.5,56.2,95,70,62,30.13,29.80,5,1,9,0.09
2013-8-27,88.5,77.0,70.3,70.6,68.9,66.5,97,78,50,29.81,29.71,10,2,15,0.01
2013-8-28,88.7,73.9,67.8,73.4,69.7,66.2,98,88,52,29.80,29.75,13,1,18,0.07
2013-8-29,80.8,73.1,68.7,70.4,68.0,64.4,99,85,63,29.93,29.79,8,1,11,0.01
2013-8-30,87.8,76.6,68.9,71.7,67.5,65.2,93,75,49,29.93,29.75,5,1,10,0.00
2013-8-31,88.7,79.4,73.0,74.3,71.3,69.5,89,77,57,29.76,29.68,9,2,17,0.00
2013-9-1,85.1,77.8,72.1,75.4,72.9,70.0,96,85,68,29.77,29.69,5,1,8,0.22
2013-9-2,81.9,76.0,71.8,77.0,73.2,70.0,99,91,71,29.71,29.60,5,0,8,0.21
2013-9-3,83.3,73.8,63.9,72.7,63.4,54.7,98,73,42,29.79,29.60,6,1,11,0.06
2013-9-4,84.9,71.3,59.7,60.2,57.5,52.3,95,66,37,29.90,29.78,7,1,12,0.00
2013-9-5,79.0,68.5,57.9,62.2,52.7,37.6,93,62,25,30.06,29.81,9,1,17,0.00
2013-9-6,73.9,61.4,52.3,49.0,43.9,38.2,85,56,29,30.16,30.03,8,1,13,0.00
2013-9-7,81.1,64.9,47.8,55.9,49.1,40.5,98,62,24,30.03,29.79,8,1,13,0.00
2013-9-8,83.8,71.5,60.4,64.0,54.1,40.0,79,56,25,29.99,29.72,8,2,17,0.00
2013-9-9,73.8,63.5,51.8,59.5,48.9,42.1,81,60,35,30.15,29.98,10,2,14,0.00
2013-9-10,88.0,75.9,66.2,73.2,68.4,59.5,97,78,59,30.06,29.94,12,2,17,0.08
2013-9-11,96.4,84.2,72.3,76.0,73.0,68.8,96,71,47,30.01,29.86,10,1,14,0.00
2013-9-12,88.5,76.3,68.4,75.3,70.8,67.6,99,84,60,29.89,29.58,13,1,19,1.70
2013-9-13,78.3,68.1,57.7,68.3,60.3,49.1,99,78,49,29.75,29.52,8,1,14,0.06
2013-9-14,68.4,58.9,50.0,49.8,47.2,44.8,87,66,47,30.03,29.75,8,1,14,0.00
2013-9-15,73.0,58.5,44.1,54.1,47.0,40.5,99,70,32,30.11,29.98,6,1,8,0.00
2013-9-16,75.4,62.5,55.0,58.8,53.5,44.6,94,75,43,30.15,29.91,11,1,18,0.01
2013-9-17,66.2,55.5,48.0,46.6,40.6,36.6,92,59,38,30.33,30.16,12,3,18,0.00
2013-9-18,74.3,57.5,42.4,51.2,45.4,38.0,99,70,29,30.25,30.08,7,1,11,0.00
2013-9-19,79.2,61.3,45.1,54.4,49.8,44.3,99,71,33,30.09,29.96,7,1,9,0.00
2013-9-20,81.1,64.0,48.9,59.7,54.6,48.7,99,75,40,29.99,29.88,9,1,14,0.00
2013-9-21,65.3,61.7,52.5,62.6,59.2,52.0,99,91,88,29.92,29.82,2,0,3,0.00
2013-9-22,65.3,65.3,65.3,61.7,61.7,61.7,88,88,88,29.82,29.82,1,1,2,0.00
2013-9-23,65.3,65.3,65.3,61.7,61.7,61.7,88,88,88,29.82,29.82,1,1,2,0.00
2013-9-24,65.3,65.3,65.3,61.7,61.7,61.7,88,88,88,29.82,29.82,1,1,2,0.00
2013-9-25,65.3,65.3,65.3,61.7,61.7,61.7,88,88,88,29.82,29.82,1,1,2,0.00
2013-9-26,65.3,65.3,65.3,61.7,61.7,61.7,88,88,88,29.82,29.82,1,1,2,0.00
2013-9-27,65.3,65.3,65.3,61.7,61.7,61.7,88,88,88,29.82,29.82,1,1,2,0.00
2013-9-28,65.3,65.3,65.3,61.7,61.7,61.7,88,88,88,29.82,29.82,1,1,2,0.00
2013-9-29,65.3,65.3,65.3,61.7,61.7,61.7,88,88,88,29.82,29.82,1,1,2,0.00
2013-9-30,65.3,65.3,65.3,61.7,61.7,61.7,88,88,88,29.82,29.82,1,1,2,0.00
2013-10-1,65.3,65.3,65.3,61.7,61.7,61.7,88,88,88,29.82,29.82,1,1,2,0.00
2013-10-2,65.3,65.3,65.3,61.7,61.7,61.7,88,88,88,29.82,29.82,1,1,2,0.00
2013-10-3,65.3,65.3,65.3,61.7,61.7,61.7,88,88,88,29.82,29.82,1,1,2,0.00
2013-10-4,65.3,65.3,65.3,61.7,61.7,61.7,88,88,88,29.82,29.82,1,1,2,0.00
2013-10-5,65.3,65.3,65.3,61.7,61.7,61.7,88,88,88,29.82,29.82,1,1,2,0.00
2013-10-6,65.3,65.3,65.3,61.7,61.7,61.7,88,88,88,29.82,29.82,1,1,2,0.00
2013-10-7,65.3,65.3,65.3,61.7,61.7,61.7,88,88,88,29.82,29.82,1,1,2,0.00
2013-10-8,65.3,65.3,65.3,61.7,61.7,61.7,88,88,88,29.82,29.82,1,1,2,0.00
2013-10-9,65.3,65.3,65.3,61.7,61.7,61.7,88,88,88,29.82,29.82,1,1,2,0.00
2013-10-14,67.3,57.0,50.2,51.8,49.4,46.4,97,78,47,30.26,30.14,3,0,4,0.00
2013-10-15,74.3,58.2,47.1,55.4,50.7,46.6,99,79,44,30.16,30.02,4,1,8,0.00
2013-10-16,66.0,58.8,51.3,59.2,54.2,49.8,95,85,70,30.01,29.81,4,1,6,0.00
2013-10-17,77.0,66.2,60.8,63.6,60.4,57.7,98,83,52,29.81,29.58,8,2,14,0.01
2013-10-18,71.1,62.0,51.8,63.3,47.7,40.9,92,62,35,29.86,29.56,5,2,14,0.01
2013-10-19,63.7,54.0,41.7,53.0,45.3,40.9,98,75,44,29.88,29.64,7,1,10,0.02
2013-10-20,65.3,52.9,43.3,53.9,38.8,31.6,99,63,31,29.95,29.64,4,1,8,0.01
2013-10-21,69.6,52.6,37.8,45.1,39.4,29.9,99,67,24,30.04,29.87,11,1,17,0.00
2013-10-22,65.8,52.8,43.0,52.3,46.0,40.2,98,79,55,29.87,29.63,5,1,10,0.00
2013-10-23,56.7,46.3,38.5,44.6,38.6,34.1,99,77,45,29.71,29.50,8,1,11,0.00
2013-10-24,57.2,45.1,36.0,36.5,30.5,22.9,89,60,29,29.89,29.63,11,2,15,0.00
2013-10-25,54.0,41.9,31.6,35.2,30.4,27.0,88,66,36,30.12,29.89,11,1,14,0.00
2013-10-26,56.3,44.1,30.6,36.6,29.4,24.3,95,61,31,30.11,29.78,15,2,25,0.05
2013-10-27,60.3,49.6,39.0,34.9,32.1,26.5,79,53,29,30.01,29.74,11,1,14,0.00
2013-10-28,64.4,47.2,31.8,36.8,32.5,28.9,94,62,27,30.22,30.01,8,1,16,0.00
2013-10-29,55.9,46.3,38.3,35.5,31.1,25.1,86,57,34,30.32,30.21,7,1,9,0.00
2013-10-30,58.1,47.1,37.9,49.3,41.5,34.3,98,81,63,30.24,30.07,4,0,5,0.00
2013-10-31,65.1,54.1,40.6,60.4,51.5,40.2,99,92,74,30.12,29.68,10,1,16,0.01
2013-11-1,72.0,64.8,53.4,64.2,57.4,49.4,93,78,48,29.68,29.43,15,4,26,0.24
2013-11-2,68.2,55.7,47.7,53.2,45.9,38.5,99,73,40,29.68,29.50,8,1,11,0.00
2013-11-3,52.0,44.1,35.2,43.1,31.8,14.6,87,63,43,30.35,29.67,13,2,18,0.00
2013-11-4,48.2,37.4,30.7,26.3,16.3,7.1,72,44,21,30.55,30.34,13,2,18,0.00
2013-11-5,55.2,44.6,33.8,40.6,34.4,25.4,87,68,53,30.55,30.37,8,1,11,0.00
2013-11-6,60.4,51.0,39.4,50.9,44.1,38.3,97,79,56,30.38,29.96,11,2,14,0.00
2013-11-7,62.2,52.5,36.5,58.4,47.7,30.7,95,84,60,29.96,29.62,8,2,13,0.12
2013-11-8,50.9,41.4,33.4,33.4,27.5,21.8,92,61,35,30.09,29.81,11,2,17,0.00
2013-11-9,51.4,42.3,32.4,32.9,26.5,21.2,77,55,32,30.17,29.87,9,2,12,0.00
2013-11-10,62.4,48.2,38.1,40.5,33.3,27.2,85,58,27,29.93,29.68,14,3,26,0.02
2013-11-11,54.5,48.0,39.0,32.8,27.9,24.4,57,46,33,30.08,29.84,11,3,17,0.00
2013-11-12,50.7,38.0,29.7,35.8,21.5,10.8,84,52,34,30.17,29.81,11,3,20,0.01
2013-11-13,41.4,32.1,26.8,16.7,11.2,3.6,59,43,22,30.25,30.15,11,2,16,0.00
2013-11-14,54.0,39.8,27.3,19.9,15.0,7.1,66,40,18,30.14,30.02,11,2,17,0.00
2013-11-15,58.1,41.3,28.4,27.7,21.6,15.2,73,49,20,30.13,30.03,8,1,11,0.00
2013-11-16,62.8,47.8,34.7,46.1,38.8,24.9,96,73,44,30.21,30.11,9,1,14,0.01
2013-11-17,59.7,53.3,42.4,59.0,52.3,41.4,99,96,91,30.17,29.67,7,1,11,0.00
2013-11-18,67.3,59.5,50.0,60.8,40.1,23.4,98,55,22,29.67,29.47,15,4,21,0.17
2013-11-19,50.0,43.0,34.3,29.9,24.2,18.6,53,47,36,30.23,29.66,16,5,24,0.00
2013-11-20,45.0,35.3,29.8,19.3,13.1,4.5,63,42,20,30.49,30.23,11,3,21,0.00
2013-11-21,50.7,39.9,25.2,38.7,28.5,16.6,76,64,45,30.50,30.27,8,1,11,0.00
2013-11-22,59.9,50.8,45.1,51.4,45.8,38.6,98,83,70,30.27,29.78,7,1,11,0.05
2013-11-23,54.0,41.5,28.9,48.6,21.8,-1.7,86,47,23,29.93,29.77,17,5,30,0.02
2013-11-24,30.2,25.2,21.7,4.4,-2.6,-9.3,42,30,19,30.24,29.89,18,6,30,0.01
2013-11-25,37.0,28.5,18.5,10.5,6.3,1.5,58,40,23,30.36,30.20,11,2,16,0.00
2013-11-26,44.8,35.5,32.4,44.0,22.8,10.2,99,63,39,30.21,29.67,11,2,15,0.53
2013-11-27,61.0,46.0,33.3,60.4,42.3,16.2,99,88,49,29.67,29.21,21,4,30,1.87
2013-11-28,35.6,30.6,25.7,16.7,9.3,-1.0,62,42,22,30.35,29.61,14,4,23,0.00
2013-11-29,41.4,31.6,26.8,21.2,16.0,7.0,74,53,37,30.62,30.34,8,2,12,0.00
2013-11-30,35.8,29.5,21.6,24.0,13.7,6.7,65,52,35,30.65,30.26,8,1,10,0.00
2013-12-1,50.5,40.0,30.9,34.6,29.7,23.6,83,67,48,30.26,29.89,5,1,8,0.00
2013-12-2,46.8,38.5,32.7,37.7,33.2,29.4,91,81,68,29.90,29.77,4,0,5,0.00
2013-12-3,54.7,39.3,29.5,39.6,33.1,28.2,97,80,49,29.89,29.75,6,1,8,0.00
2013-12-4,52.2,41.9,31.3,40.1,34.7,28.9,96,77,56,30.02,29.89,4,1,7,0.00
2013-12-5,53.4,49.8,45.7,52.9,48.5,39.9,99,96,78,30.01,29.81,4,0,7,0.04
2013-12-6,55.2,46.4,35.2,54.4,45.0,31.5,99,95,85,30.05,29.75,8,2,14,0.78
2013-12-7,41.7,35.9,30.0,33.1,24.5,12.3,91,65,43,30.40,29.98,9,2,15,0.06
2013-12-8,31.5,29.0,26.2,25.9,15.5,9.0,88,57,44,30.48,30.27,8,2,11,0.00
2013-12-9,37.0,33.2,28.6,35.2,31.0,25.7,94,92,88,30.27,29.84,12,1,15,0.09
2013-12-10,34.0,30.9,24.4,32.1,28.3,18.6,95,90,78,29.99,29.74,5,1,7,0.01
2013-12-11,34.9,27.6,22.6,18.6,13.5,10.1,78,56,39,30.19,29.99,11,3,17,0.01
2013-12-12,28.6,24.1,20.5,10.8,0.6,-6.0,55,36,23,30.23,30.02,9,3,15,0.00
2013-12-13,36.7,26.8,18.0,15.9,6.5,-2.7,63,42,29,30.21,29.99,12,3,17,0.00
2013-12-14,27.7,22.1,18.0,22.6,14.5,10.5,85,72,53,30.38,29.71,13,4,19,0.00
2013-12-15,38.3,32.6,26.8,34.1,26.5,18.5,93,79,57,29.70,29.40,11,1,15,0.33
2013-12-16,31.6,26.2,16.3,19.7,6.1,-3.2,66,44,25,30.11,29.69,11,3,17,0.00
2013-12-17,24.6,21.6,14.7,19.7,14.6,6.5,81,74,61,30.11,29.82,7,2,11,0.00
2013-12-18,39.2,27.9,17.4,21.0,15.8,9.9,77,61,41,30.04,29.80,11,2,16,0.08
2013-12-19,46.4,33.4,20.5,26.4,20.0,12.5,75,59,37,30.05,29.89,11,1,14,0.09
2013-12-20,50.7,41.1,31.5,32.5,28.9,25.1,83,63,43,29.98,29.84,7,1,9,0.00
2013-12-21,61.0,51.0,38.7,51.3,42.4,32.2,91,73,55,29.88,29.78,11,2,15,0.00
2013-12-22,69.3,63.7,53.6,62.0,56.6,49.2,93,78,66,29.85,29.67,17,4,26,0.00
2013-12-23,61.2,53.2,40.5,58.3,50.0,28.9,98,89,64,30.05,29.79,12,2,17,0.48
2013-12-24,42.1,34.4,24.1,28.9,18.0,0.6,84,52,32,30.23,29.98,16,4,21,0.00
2013-12-25,31.1,23.6,17.1,10.0,1.4,-3.8,53,38,25,30.41,30.22,11,2,17,0.00
2013-12-26,36.1,29.5,24.8,24.2,18.2,9.7,75,62,52,30.31,30.03,9,1,12,0.00
2013-12-27,39.9,31.5,23.9,21.2,18.1,14.6,74,58,40,30.22,30.13,10,1,13,0.00
2013-12-28,54.0,38.1,24.8,26.3,20.8,17.3,76,53,24,30.17,29.95,9,1,21,0.00
2013-12-29,42.6,38.3,32.9,40.8,32.7,22.9,98,81,63,29.95,29.32,11,2,14,0.69
2013-12-30,41.5,34.8,20.7,37.1,23.4,3.2,94,65,36,30.07,29.57,14,3,21,0.00
2013-12-31,30.6,24.5,18.1,21.5,6.8,0.9,74,47,33,30.15,29.93,11,2,17,0.00
2014-1-1,32.5,26.6,18.1,15.9,9.1,-1.4,61,47,33,30.28,30.14,7,2,10,0.00
2014-1-2,29.5,22.2,10.9,18.1,13.2,3.9,76,68,55,30.13,29.58,12,5,21,0.00